ニース/コート・ダジュール の空港の天気 - METARとTAF

コート・ダジュール空港(ニース) ( LFMN / NCE ) - フランス ニース
飛行場実況気象(Metar)
観測時間09/22 18:30 CEST (09/22 16:30 UTC)
風向・風速北西 3m/s
視程10km以上
天気現象
少しの雲 雲底高度 490m
全天の8割程度の雲 雲底高度 7010m
気温20℃
湿度78%
気圧1013hPa
METARLFMN 221630Z 32005KT 9999 FEW016 BKN230 20/16 Q1013
過去の天気等 Google飛行場航空写真 Wunderground天気予報

過去48時間のMETAR

飛行場予報(TAF)
発表時間: 9/22 16:00 CEST (9/22 14:00 UTC)
予報対象時間: 22日17時 CEST ~ 23日23時 CEST
風向・風速不定 1m/s
視程10km以上
少しの雲 雲底高度 1220m
22日17時 CEST ~ 22日21時 CEST に 確率 40% で一時的に
風向・風速不定 6m/s 瞬間風速 11m/s
視程4000m
天気現象雷雨
全天の8割程度の雲 雲底高度 370m
全天の8割程度の積乱雲 雲底高度 1520m
22日21時 CEST ~ 23日10時 CEST に一時的に
風向・風速北北西 5m/s
23日13時 CEST ~ 23日22時 CEST に一時的に
風向・風速南西 9m/s 瞬間風速 14m/s
TAF LFMN 221400Z 2215/2321 VRB02KT 9999 FEW040
PROB40 TEMPO 2215/2219 VRB12G22KT 4000 TSRA BKN012 BKN050CB
TEMPO 2219/2308 33010KT
TEMPO 2311/2320 22018G28KT